MSC Vega — D5BE4 — position and weather

sailwx.info

Track history (hours):
 
Tides and Currents Weather Stations Pressure Air Temp Water Temp Dewpoint Dewpoint Depression Visibility Wind Speed Wind Dir Waves Ship Positions

MSC Vega

Last reported at 2015-Mar-29 19:26 UTC. Time now 2015-Mar-30 20:08 UTC.
Position N 01°09' E 103°45'.

Length 366 m; draft 11.3 m.

Type: Ship (hazmat cat A). MMSI: 636015506.

Date/timePositionNaut miles runAvg speedWind from/ knotsBaromVisibWave heightAir tempDewpointWater temp
2015-Mar-29 19:26N 01°09' E 103°45'1112.0
2015-Mar-29 18:33N 01°13' E 103°54'1312.2
2015-Mar-29 17:30N 01°17' E 104°07'1212.9
2015-Mar-29 16:33N 01°18' E 104°19'  
2015-Mar-26 08:15N 22°08' E 114°29'29 7.5
2015-Mar-26 04:22N 22°34' E 114°16'0 0.0
2015-Mar-25 21:12N 22°34' E 114°16'2 3.4
2015-Mar-25 20:33N 22°34' E 114°19'1513.2
2015-Mar-25 19:25N 22°23' E 114°30'1617.9
2015-Mar-25 18:31N 22°07' E 114°25'2116.5
2015-Mar-25 17:14N 21°57' E 114°05'2712.6
2015-Mar-25 15:06N 22°19' E 113°48'1614.7
2015-Mar-25 14:03N 22°34' E 113°43'1 0.0
2015-Mar-25 01:17N 22°34' E 113°43'1113.8
2015-Mar-25 00:31N 22°24' E 113°46'1414.5
2015-Mar-24 23:33N 22°10' E 113°50'9 6.9
2015-Mar-24 22:13N 22°01' E 113°52'4 0.3
2015-Mar-24 09:23N 22°05' E 113°51'910.8
2015-Mar-24 08:33N 22°13' E 113°49'1413.9
2015-Mar-24 07:34N 22°27' E 113°53'1 0.7
2015-Mar-24 06:32N 22°28' E 113°53'0 0.0
2015-Mar-24 05:32N 22°28' E 113°53'0 0.0
2015-Mar-24 04:29N 22°28' E 113°53'0 0.0
2015-Mar-24 03:32N 22°28' E 113°53'0 0.0
2015-Mar-24 02:32N 22°28' E 113°53'0 0.0
2015-Mar-24 01:32N 22°28' E 113°53'0 0.0
2015-Mar-24 00:23N 22°28' E 113°53'1 1.1
2015-Mar-23 23:33N 22°27' E 113°52'1211.9
2015-Mar-23 22:33N 22°15' E 113°48'1312.2
2015-Mar-23 21:31N 22°03' E 113°51'10 8.0
2015-Mar-23 20:19N 21°57' E 113°59'6 0.5
2015-Mar-23 09:13N 21°57' E 114°06'1413.9
2015-Mar-23 08:11N 21°57' E 114°21'14014.1
2015-Mar-22 22:16N 22°46' E 116°42'1115.1
2015-Mar-22 21:33N 22°52' E 116°52'1515.2
2015-Mar-22 20:34N 22°60' E 117°06'5814.5
2015-Mar-22 16:32N 23°34' E 117°58'1313.3
2015-Mar-22 15:33N 23°43' E 118°08'1312.7
2015-Mar-22 14:33N 23°55' E 118°13'1212.2
2015-Mar-22 13:33N 24°06' E 118°18'1312.7
2015-Mar-22 12:33N 24°18' E 118°13'1212.1
2015-Mar-22 11:33N 24°26' E 118°03'2 0.7
2015-Mar-22 09:10N 24°27' E 118°01'0 0.0
2015-Mar-22 07:04N 24°27' E 118°01'0 0.0
2015-Mar-22 06:28N 24°27' E 118°01'0 0.0
2015-Mar-22 05:28N 24°27' E 118°01'0 0.0
2015-Mar-22 04:28N 24°27' E 118°01'0 0.3
2015-Mar-22 03:33N 24°27' E 118°01'10 9.8
2015-Mar-22 02:33N 24°21' E 118°10'1413.7
2015-Mar-22 01:33N 24°13' E 118°22'1918.2
2015-Mar-22 00:30N 24°17' E 118°42'2318.9
2015-Mar-21 23:16N 24°25' E 119°06'1419.5
2015-Mar-21 22:34N 24°34' E 119°18'3113.2
2015-Mar-21 20:11N 24°55' E 119°43'1216.2
2015-Mar-21 19:25N 25°04' E 119°53'32417.7
2015-Mar-21 01:07N 29°41' E 123°01'1218.3
2015-Mar-21 00:28N 29°52' E 123°03'4017.1
2015-Mar-20 22:09N 30°28' E 122°43'1220.7
2015-Mar-20 21:33N 30°31' E 122°29'1918.7
2015-Mar-20 20:33N 30°35' E 122°08'5 4.8
2015-Mar-20 19:33N 30°38' E 122°03'0 0.0
2015-Mar-20 18:33N 30°38' E 122°03'0 0.0
2015-Mar-20 17:12N 30°38' E 122°03'0 0.0
2015-Mar-20 16:33N 30°38' E 122°03'0 0.0
2015-Mar-20 15:27N 30°38' E 122°03'0 0.0
2015-Mar-20 14:33N 30°38' E 122°03'0 0.0
2015-Mar-20 13:33N 30°38' E 122°03'0 0.0
2015-Mar-20 12:33N 30°38' E 122°03'0 0.0
2015-Mar-20 11:21N 30°38' E 122°03'0 0.0
2015-Mar-20 10:33N 30°38' E 122°03'0 0.0
2015-Mar-20 09:33N 30°38' E 122°03'0 0.0
2015-Mar-20 08:33N 30°38' E 122°03'0 0.0
2015-Mar-20 07:30N 30°38' E 122°03'0 0.0
2015-Mar-20 06:13N 30°38' E 122°03'1 1.9
2015-Mar-20 05:33N 30°37' E 122°03'1 0.5
2015-Mar-20 04:34N 30°37' E 122°04'5 5.4
2015-Mar-20 03:33N 30°34' E 122°10'1212.0
2015-Mar-20 02:33N 30°33' E 122°23'9 9.3
2015-Mar-20 01:33N 30°31' E 122°34'1313.4
2015-Mar-20 00:33N 30°25' E 122°48'3410.3
2015-Mar-19 21:14N 29°51' E 122°50'1013.8
2015-Mar-19 20:30N 29°43' E 122°43'1212.6
2015-Mar-19 19:32N 29°39' E 122°29'  
Track history (hours):
 
Tides and Currents Weather Stations Pressure Air Temp Water Temp Dewpoint Dewpoint Depression Visibility Wind Speed Wind Dir Waves Ship Positions

MSC Vega

Last reported at 2015-Mar-29 19:26 UTC. Time now 2015-Mar-30 20:08 UTC.
Position N 01°09' E 103°45'.

Length 366 m; draft 11.3 m.

Type: Ship (hazmat cat A). MMSI: 636015506.

Date/timePositionNaut miles runAvg speedWind from/ knotsBaromVisibWave heightAir tempDewpointWater temp
2015-Mar-29 19:26N 01°09' E 103°45'1112.0
2015-Mar-29 18:33N 01°13' E 103°54'1312.2
2015-Mar-29 17:30N 01°17' E 104°07'1212.9
2015-Mar-29 16:33N 01°18' E 104°19'  
2015-Mar-26 08:15N 22°08' E 114°29'29 7.5
2015-Mar-26 04:22N 22°34' E 114°16'0 0.0
2015-Mar-25 21:12N 22°34' E 114°16'2 3.4
2015-Mar-25 20:33N 22°34' E 114°19'1513.2
2015-Mar-25 19:25N 22°23' E 114°30'1617.9
2015-Mar-25 18:31N 22°07' E 114°25'2116.5
2015-Mar-25 17:14N 21°57' E 114°05'2712.6
2015-Mar-25 15:06N 22°19' E 113°48'1614.7
2015-Mar-25 14:03N 22°34' E 113°43'1 0.0
2015-Mar-25 01:17N 22°34' E 113°43'1113.8
2015-Mar-25 00:31N 22°24' E 113°46'1414.5
2015-Mar-24 23:33N 22°10' E 113°50'9 6.9
2015-Mar-24 22:13N 22°01' E 113°52'4 0.3
2015-Mar-24 09:23N 22°05' E 113°51'910.8
2015-Mar-24 08:33N 22°13' E 113°49'1413.9
2015-Mar-24 07:34N 22°27' E 113°53'1 0.7
2015-Mar-24 06:32N 22°28' E 113°53'0 0.0
2015-Mar-24 05:32N 22°28' E 113°53'0 0.0
2015-Mar-24 04:29N 22°28' E 113°53'0 0.0
2015-Mar-24 03:32N 22°28' E 113°53'0 0.0
2015-Mar-24 02:32N 22°28' E 113°53'0 0.0
2015-Mar-24 01:32N 22°28' E 113°53'0 0.0
2015-Mar-24 00:23N 22°28' E 113°53'1 1.1
2015-Mar-23 23:33N 22°27' E 113°52'1211.9
2015-Mar-23 22:33N 22°15' E 113°48'1312.2
2015-Mar-23 21:31N 22°03' E 113°51'10 8.0
2015-Mar-23 20:19N 21°57' E 113°59'6 0.5
2015-Mar-23 09:13N 21°57' E 114°06'1413.9
2015-Mar-23 08:11N 21°57' E 114°21'14014.1
2015-Mar-22 22:16N 22°46' E 116°42'1115.1
2015-Mar-22 21:33N 22°52' E 116°52'1515.2
2015-Mar-22 20:34N 22°60' E 117°06'5814.5
2015-Mar-22 16:32N 23°34' E 117°58'1313.3
2015-Mar-22 15:33N 23°43' E 118°08'1312.7
2015-Mar-22 14:33N 23°55' E 118°13'1212.2
2015-Mar-22 13:33N 24°06' E 118°18'1312.7
2015-Mar-22 12:33N 24°18' E 118°13'1212.1
2015-Mar-22 11:33N 24°26' E 118°03'2 0.7
2015-Mar-22 09:10N 24°27' E 118°01'0 0.0
2015-Mar-22 07:04N 24°27' E 118°01'0 0.0
2015-Mar-22 06:28N 24°27' E 118°01'0 0.0
2015-Mar-22 05:28N 24°27' E 118°01'0 0.0
2015-Mar-22 04:28N 24°27' E 118°01'0 0.3
2015-Mar-22 03:33N 24°27' E 118°01'10 9.8
2015-Mar-22 02:33N 24°21' E 118°10'1413.7
2015-Mar-22 01:33N 24°13' E 118°22'1918.2
2015-Mar-22 00:30N 24°17' E 118°42'2318.9
2015-Mar-21 23:16N 24°25' E 119°06'1419.5
2015-Mar-21 22:34N 24°34' E 119°18'3113.2
2015-Mar-21 20:11N 24°55' E 119°43'1216.2
2015-Mar-21 19:25N 25°04' E 119°53'32417.7
2015-Mar-21 01:07N 29°41' E 123°01'1218.3
2015-Mar-21 00:28N 29°52' E 123°03'4017.1
2015-Mar-20 22:09N 30°28' E 122°43'1220.7
2015-Mar-20 21:33N 30°31' E 122°29'1918.7
2015-Mar-20 20:33N 30°35' E 122°08'5 4.8
2015-Mar-20 19:33N 30°38' E 122°03'0 0.0
2015-Mar-20 18:33N 30°38' E 122°03'0 0.0
2015-Mar-20 17:12N 30°38' E 122°03'0 0.0
2015-Mar-20 16:33N 30°38' E 122°03'0 0.0
2015-Mar-20 15:27N 30°38' E 122°03'0 0.0
2015-Mar-20 14:33N 30°38' E 122°03'0 0.0
2015-Mar-20 13:33N 30°38' E 122°03'0 0.0
2015-Mar-20 12:33N 30°38' E 122°03'0 0.0
2015-Mar-20 11:21N 30°38' E 122°03'0 0.0
2015-Mar-20 10:33N 30°38' E 122°03'0 0.0
2015-Mar-20 09:33N 30°38' E 122°03'0 0.0
2015-Mar-20 08:33N 30°38' E 122°03'0 0.0
2015-Mar-20 07:30N 30°38' E 122°03'0 0.0
2015-Mar-20 06:13N 30°38' E 122°03'1 1.9
2015-Mar-20 05:33N 30°37' E 122°03'1 0.5
2015-Mar-20 04:34N 30°37' E 122°04'5 5.4
2015-Mar-20 03:33N 30°34' E 122°10'1212.0
2015-Mar-20 02:33N 30°33' E 122°23'9 9.3
2015-Mar-20 01:33N 30°31' E 122°34'1313.4
2015-Mar-20 00:33N 30°25' E 122°48'3410.3
2015-Mar-19 21:14N 29°51' E 122°50'1013.8
2015-Mar-19 20:30N 29°43' E 122°43'1212.6
2015-Mar-19 19:32N 29°39' E 122°29'  

Dump ship's entire track history